sensor_id;sensor_type;location;lat;lon;timestamp;P1;durP1;ratioP1;P2;durP2;ratioP2
10471;SDS011;5283;48.876;8.962;2023-03-23T00:02:29;0.80;;;0.77;;
10471;SDS011;5283;48.876;8.962;2023-03-23T00:05:09;0.97;;;0.97;;
10471;SDS011;5283;48.876;8.962;2023-03-23T00:07:35;1.97;;;1.23;;
10471;SDS011;5283;48.876;8.962;2023-03-23T00:10:01;1.83;;;1.03;;
10471;SDS011;5283;48.876;8.962;2023-03-23T00:12:28;1.17;;;0.87;;
10471;SDS011;5283;48.876;8.962;2023-03-23T00:15:07;1.17;;;0.80;;
10471;SDS011;5283;48.876;8.962;2023-03-23T00:17:37;1.60;;;0.80;;
10471;SDS011;5283;48.876;8.962;2023-03-23T00:20:05;1.10;;;1.00;;
10471;SDS011;5283;48.876;8.962;2023-03-23T00:22:31;1.47;;;1.27;;
10471;SDS011;5283;48.876;8.962;2023-03-23T00:25:02;1.93;;;1.00;;
10471;SDS011;5283;48.876;8.962;2023-03-23T00:27:28;1.37;;;1.00;;
10471;SDS011;5283;48.876;8.962;2023-03-23T00:29:54;1.13;;;1.03;;
10471;SDS011;5283;48.876;8.962;2023-03-23T00:32:20;1.03;;;1.00;;
10471;SDS011;5283;48.876;8.962;2023-03-23T00:34:54;1.00;;;1.00;;
10471;SDS011;5283;48.876;8.962;2023-03-23T00:37:20;1.00;;;1.00;;
10471;SDS011;5283;48.876;8.962;2023-03-23T00:39:46;1.07;;;1.00;;
10471;SDS011;5283;48.876;8.962;2023-03-23T00:42:12;1.30;;;0.90;;
10471;SDS011;5283;48.876;8.962;2023-03-23T00:44:40;2.07;;;1.23;;
10471;SDS011;5283;48.876;8.962;2023-03-23T00:47:06;1.30;;;1.30;;
10471;SDS011;5283;48.876;8.962;2023-03-23T00:49:33;2.27;;;1.07;;
10471;SDS011;5283;48.876;8.962;2023-03-23T00:52:00;3.07;;;1.10;;
10471;SDS011;5283;48.876;8.962;2023-03-23T00:54:26;1.23;;;1.13;;
10471;SDS011;5283;48.876;8.962;2023-03-23T00:56:52;1.10;;;1.00;;
10471;SDS011;5283;48.876;8.962;2023-03-23T00:59:18;4.37;;;1.60;;
10471;SDS011;5283;48.876;8.962;2023-03-23T01:01:44;1.50;;;1.23;;
10471;SDS011;5283;48.876;8.962;2023-03-23T01:04:11;1.20;;;1.10;;
10471;SDS011;5283;48.876;8.962;2023-03-23T01:06:38;2.67;;;1.20;;
10471;SDS011;5283;48.876;8.962;2023-03-23T01:09:15;1.63;;;1.00;;
10471;SDS011;5283;48.876;8.962;2023-03-23T01:11:42;1.27;;;1.17;;
10471;SDS011;5283;48.876;8.962;2023-03-23T01:14:08;1.43;;;1.20;;
10471;SDS011;5283;48.876;8.962;2023-03-23T01:16:34;2.07;;;1.17;;
10471;SDS011;5283;48.876;8.962;2023-03-23T01:19:00;1.53;;;1.00;;
10471;SDS011;5283;48.876;8.962;2023-03-23T01:21:26;1.57;;;1.07;;
10471;SDS011;5283;48.876;8.962;2023-03-23T01:23:51;1.50;;;1.40;;
10471;SDS011;5283;48.876;8.962;2023-03-23T01:26:18;1.30;;;1.20;;
10471;SDS011;5283;48.876;8.962;2023-03-23T01:28:49;1.10;;;1.00;;
10471;SDS011;5283;48.876;8.962;2023-03-23T01:31:16;1.13;;;1.03;;
10471;SDS011;5283;48.876;8.962;2023-03-23T01:33:43;1.13;;;1.07;;
10471;SDS011;5283;48.876;8.962;2023-03-23T01:36:13;1.00;;;1.00;;
10471;SDS011;5283;48.876;8.962;2023-03-23T01:38:45;2.53;;;1.30;;
10471;SDS011;5283;48.876;8.962;2023-03-23T01:41:12;1.10;;;1.00;;
10471;SDS011;5283;48.876;8.962;2023-03-23T01:46:29;2.47;;;1.30;;
10471;SDS011;5283;48.876;8.962;2023-03-23T01:49:01;2.60;;;1.40;;
10471;SDS011;5283;48.876;8.962;2023-03-23T01:51:33;1.27;;;1.17;;
10471;SDS011;5283;48.876;8.962;2023-03-23T01:54:04;2.20;;;1.30;;
10471;SDS011;5283;48.876;8.962;2023-03-23T01:56:35;1.20;;;1.10;;
10471;SDS011;5283;48.876;8.962;2023-03-23T01:59:06;1.40;;;1.30;;
10471;SDS011;5283;48.876;8.962;2023-03-23T02:01:33;1.23;;;1.00;;
10471;SDS011;5283;48.876;8.962;2023-03-23T02:04:03;1.13;;;1.10;;
10471;SDS011;5283;48.876;8.962;2023-03-23T02:06:30;1.30;;;1.20;;
10471;SDS011;5283;48.876;8.962;2023-03-23T02:08:56;1.33;;;1.23;;
10471;SDS011;5283;48.876;8.962;2023-03-23T02:11:23;1.67;;;1.50;;
10471;SDS011;5283;48.876;8.962;2023-03-23T02:13:48;1.53;;;1.33;;
10471;SDS011;5283;48.876;8.962;2023-03-23T02:27:51;2.30;;;1.40;;
10471;SDS011;5283;48.876;8.962;2023-03-23T02:33:22;1.50;;;1.17;;
10471;SDS011;5283;48.876;8.962;2023-03-23T02:35:58;1.87;;;1.57;;
10471;SDS011;5283;48.876;8.962;2023-03-23T02:38:33;1.00;;;1.00;;
10471;SDS011;5283;48.876;8.962;2023-03-23T02:41:06;1.50;;;1.37;;
10471;SDS011;5283;48.876;8.962;2023-03-23T02:43:38;2.77;;;1.17;;
10471;SDS011;5283;48.876;8.962;2023-03-23T02:46:08;1.50;;;1.40;;
10471;SDS011;5283;48.876;8.962;2023-03-23T02:48:34;1.20;;;1.20;;
10471;SDS011;5283;48.876;8.962;2023-03-23T02:51:01;1.80;;;1.47;;
10471;SDS011;5283;48.876;8.962;2023-03-23T02:53:28;2.40;;;1.30;;
10471;SDS011;5283;48.876;8.962;2023-03-23T02:55:56;3.77;;;1.77;;
10471;SDS011;5283;48.876;8.962;2023-03-23T02:58:24;1.50;;;1.40;;
10471;SDS011;5283;48.876;8.962;2023-03-23T03:00:50;1.93;;;1.30;;
10471;SDS011;5283;48.876;8.962;2023-03-23T03:03:16;1.60;;;1.50;;
10471;SDS011;5283;48.876;8.962;2023-03-23T03:05:58;2.50;;;1.40;;
10471;SDS011;5283;48.876;8.962;2023-03-23T03:08:43;2.33;;;1.40;;
10471;SDS011;5283;48.876;8.962;2023-03-23T03:11:15;1.27;;;1.17;;
10471;SDS011;5283;48.876;8.962;2023-03-23T03:14:26;2.23;;;1.50;;
10471;SDS011;5283;48.876;8.962;2023-03-23T03:16:38;1.57;;;1.47;;
10471;SDS011;5283;48.876;8.962;2023-03-23T03:19:18;1.60;;;1.50;;
10471;SDS011;5283;48.876;8.962;2023-03-23T03:21:50;2.17;;;1.67;;
10471;SDS011;5283;48.876;8.962;2023-03-23T03:24:19;1.50;;;1.40;;
10471;SDS011;5283;48.876;8.962;2023-03-23T03:26:48;1.87;;;1.50;;
10471;SDS011;5283;48.876;8.962;2023-03-23T03:29:18;2.47;;;1.70;;
10471;SDS011;5283;48.876;8.962;2023-03-23T03:31:48;2.80;;;1.83;;
10471;SDS011;5283;48.876;8.962;2023-03-23T03:34:16;2.20;;;2.00;;
10471;SDS011;5283;48.876;8.962;2023-03-23T03:36:43;1.93;;;1.73;;
10471;SDS011;5283;48.876;8.962;2023-03-23T03:39:11;1.77;;;1.60;;
10471;SDS011;5283;48.876;8.962;2023-03-23T03:41:40;2.20;;;1.90;;
10471;SDS011;5283;48.876;8.962;2023-03-23T03:44:05;2.23;;;1.80;;
10471;SDS011;5283;48.876;8.962;2023-03-23T03:46:32;1.70;;;1.57;;
10471;SDS011;5283;48.876;8.962;2023-03-23T03:48:59;2.33;;;1.53;;
10471;SDS011;5283;48.876;8.962;2023-03-23T03:51:26;1.77;;;1.63;;
10471;SDS011;5283;48.876;8.962;2023-03-23T03:53:53;1.43;;;1.30;;
10471;SDS011;5283;48.876;8.962;2023-03-23T03:56:19;2.00;;;1.70;;
10471;SDS011;5283;48.876;8.962;2023-03-23T03:58:47;1.80;;;1.50;;
10471;SDS011;5283;48.876;8.962;2023-03-23T04:01:14;1.33;;;1.27;;
10471;SDS011;5283;48.876;8.962;2023-03-23T04:03:41;1.87;;;1.67;;
10471;SDS011;5283;48.876;8.962;2023-03-23T04:06:07;2.10;;;1.53;;
10471;SDS011;5283;48.876;8.962;2023-03-23T04:08:33;1.60;;;1.50;;
10471;SDS011;5283;48.876;8.962;2023-03-23T04:11:00;1.97;;;1.27;;
10471;SDS011;5283;48.876;8.962;2023-03-23T04:13:26;1.50;;;1.40;;
10471;SDS011;5283;48.876;8.962;2023-03-23T04:15:52;2.00;;;1.70;;
10471;SDS011;5283;48.876;8.962;2023-03-23T04:18:18;2.13;;;1.47;;
10471;SDS011;5283;48.876;8.962;2023-03-23T04:20:45;1.60;;;1.50;;
10471;SDS011;5283;48.876;8.962;2023-03-23T04:23:14;1.57;;;1.40;;
10471;SDS011;5283;48.876;8.962;2023-03-23T04:25:45;1.70;;;1.40;;
10471;SDS011;5283;48.876;8.962;2023-03-23T04:28:11;2.20;;;1.70;;
10471;SDS011;5283;48.876;8.962;2023-03-23T04:30:38;1.60;;;1.50;;
10471;SDS011;5283;48.876;8.962;2023-03-23T04:33:03;1.37;;;1.27;;
10471;SDS011;5283;48.876;8.962;2023-03-23T04:35:29;2.47;;;1.60;;
10471;SDS011;5283;48.876;8.962;2023-03-23T04:37:55;1.83;;;1.40;;
10471;SDS011;5283;48.876;8.962;2023-03-23T04:40:21;3.03;;;1.70;;
10471;SDS011;5283;48.876;8.962;2023-03-23T04:42:47;2.67;;;1.80;;
10471;SDS011;5283;48.876;8.962;2023-03-23T04:45:18;1.40;;;1.30;;
10471;SDS011;5283;48.876;8.962;2023-03-23T04:47:48;2.43;;;1.50;;
10471;SDS011;5283;48.876;8.962;2023-03-23T04:50:18;2.60;;;1.93;;
10471;SDS011;5283;48.876;8.962;2023-03-23T04:52:46;1.67;;;1.33;;
10471;SDS011;5283;48.876;8.962;2023-03-23T04:55:13;3.80;;;1.60;;
10471;SDS011;5283;48.876;8.962;2023-03-23T04:57:39;1.97;;;1.20;;
10471;SDS011;5283;48.876;8.962;2023-03-23T05:00:05;2.50;;;1.70;;
10471;SDS011;5283;48.876;8.962;2023-03-23T05:02:38;1.40;;;1.30;;
10471;SDS011;5283;48.876;8.962;2023-03-23T05:05:07;1.87;;;1.50;;
10471;SDS011;5283;48.876;8.962;2023-03-23T05:07:36;2.60;;;1.57;;
10471;SDS011;5283;48.876;8.962;2023-03-23T05:10:03;1.93;;;1.30;;
10471;SDS011;5283;48.876;8.962;2023-03-23T05:12:29;1.40;;;1.17;;
10471;SDS011;5283;48.876;8.962;2023-03-23T05:14:55;1.43;;;1.20;;
10471;SDS011;5283;48.876;8.962;2023-03-23T05:17:21;3.43;;;1.70;;
10471;SDS011;5283;48.876;8.962;2023-03-23T05:19:49;1.20;;;1.10;;
10471;SDS011;5283;48.876;8.962;2023-03-23T05:22:15;1.40;;;1.37;;
10471;SDS011;5283;48.876;8.962;2023-03-23T05:24:41;2.57;;;1.40;;
10471;SDS011;5283;48.876;8.962;2023-03-23T05:27:11;2.53;;;1.40;;
10471;SDS011;5283;48.876;8.962;2023-03-23T05:29:37;1.53;;;1.40;;
10471;SDS011;5283;48.876;8.962;2023-03-23T05:32:06;3.00;;;1.47;;
10471;SDS011;5283;48.876;8.962;2023-03-23T05:34:33;2.07;;;1.43;;
10471;SDS011;5283;48.876;8.962;2023-03-23T05:36:59;2.03;;;1.50;;
10471;SDS011;5283;48.876;8.962;2023-03-23T05:39:27;2.50;;;1.43;;
10471;SDS011;5283;48.876;8.962;2023-03-23T05:41:53;1.30;;;1.20;;
10471;SDS011;5283;48.876;8.962;2023-03-23T05:44:19;2.23;;;1.33;;
10471;SDS011;5283;48.876;8.962;2023-03-23T05:46:46;1.53;;;1.37;;
10471;SDS011;5283;48.876;8.962;2023-03-23T05:49:13;1.63;;;1.33;;
10471;SDS011;5283;48.876;8.962;2023-03-23T05:51:41;1.70;;;1.50;;
10471;SDS011;5283;48.876;8.962;2023-03-23T05:54:07;2.53;;;1.50;;
10471;SDS011;5283;48.876;8.962;2023-03-23T05:56:33;1.77;;;1.50;;
10471;SDS011;5283;48.876;8.962;2023-03-23T05:58:59;1.93;;;1.40;;
10471;SDS011;5283;48.876;8.962;2023-03-23T06:01:25;1.60;;;1.50;;
10471;SDS011;5283;48.876;8.962;2023-03-23T06:03:51;1.43;;;1.30;;
10471;SDS011;5283;48.876;8.962;2023-03-23T06:06:19;2.03;;;1.53;;
10471;SDS011;5283;48.876;8.962;2023-03-23T06:08:46;1.97;;;1.53;;
10471;SDS011;5283;48.876;8.962;2023-03-23T06:11:13;1.87;;;1.40;;
10471;SDS011;5283;48.876;8.962;2023-03-23T06:13:39;1.50;;;1.40;;
10471;SDS011;5283;48.876;8.962;2023-03-23T06:16:05;1.90;;;1.50;;
10471;SDS011;5283;48.876;8.962;2023-03-23T06:18:31;2.77;;;1.40;;
10471;SDS011;5283;48.876;8.962;2023-03-23T06:20:58;2.40;;;1.50;;
10471;SDS011;5283;48.876;8.962;2023-03-23T06:23:25;1.33;;;1.23;;
10471;SDS011;5283;48.876;8.962;2023-03-23T06:25:58;1.80;;;1.30;;
10471;SDS011;5283;48.876;8.962;2023-03-23T06:28:26;2.00;;;1.80;;
10471;SDS011;5283;48.876;8.962;2023-03-23T06:30:52;1.80;;;1.50;;
10471;SDS011;5283;48.876;8.962;2023-03-23T06:33:18;1.40;;;1.23;;
10471;SDS011;5283;48.876;8.962;2023-03-23T06:35:44;2.20;;;1.60;;
10471;SDS011;5283;48.876;8.962;2023-03-23T06:38:10;1.97;;;1.70;;
10471;SDS011;5283;48.876;8.962;2023-03-23T06:40:35;3.30;;;1.80;;
10471;SDS011;5283;48.876;8.962;2023-03-23T06:43:02;1.50;;;1.40;;
10471;SDS011;5283;48.876;8.962;2023-03-23T06:45:29;2.63;;;1.50;;
10471;SDS011;5283;48.876;8.962;2023-03-23T06:47:55;3.53;;;1.80;;
10471;SDS011;5283;48.876;8.962;2023-03-23T06:50:21;1.87;;;1.37;;
10471;SDS011;5283;48.876;8.962;2023-03-23T06:52:49;3.90;;;1.70;;
10471;SDS011;5283;48.876;8.962;2023-03-23T06:55:16;3.60;;;1.90;;
10471;SDS011;5283;48.876;8.962;2023-03-23T06:57:43;1.60;;;1.50;;
10471;SDS011;5283;48.876;8.962;2023-03-23T07:00:10;3.07;;;1.67;;
10471;SDS011;5283;48.876;8.962;2023-03-23T07:02:37;2.40;;;1.30;;
10471;SDS011;5283;48.876;8.962;2023-03-23T07:05:07;2.03;;;1.40;;
10471;SDS011;5283;48.876;8.962;2023-03-23T07:07:34;1.50;;;1.40;;
10471;SDS011;5283;48.876;8.962;2023-03-23T07:10:04;1.80;;;1.50;;
10471;SDS011;5283;48.876;8.962;2023-03-23T07:12:31;1.97;;;1.50;;
10471;SDS011;5283;48.876;8.962;2023-03-23T07:14:58;1.30;;;1.23;;
10471;SDS011;5283;48.876;8.962;2023-03-23T07:17:24;1.70;;;1.60;;
10471;SDS011;5283;48.876;8.962;2023-03-23T07:19:50;1.67;;;1.30;;
10471;SDS011;5283;48.876;8.962;2023-03-23T07:22:15;1.60;;;1.50;;
10471;SDS011;5283;48.876;8.962;2023-03-23T07:24:41;1.87;;;1.40;;
10471;SDS011;5283;48.876;8.962;2023-03-23T07:27:07;2.63;;;1.70;;
10471;SDS011;5283;48.876;8.962;2023-03-23T07:29:34;1.60;;;1.43;;
10471;SDS011;5283;48.876;8.962;2023-03-23T07:32:01;1.40;;;1.30;;
10471;SDS011;5283;48.876;8.962;2023-03-23T07:34:27;1.67;;;1.47;;
10471;SDS011;5283;48.876;8.962;2023-03-23T07:36:53;1.60;;;1.50;;
10471;SDS011;5283;48.876;8.962;2023-03-23T07:39:19;1.53;;;1.20;;
10471;SDS011;5283;48.876;8.962;2023-03-23T07:41:44;1.80;;;1.60;;
10471;SDS011;5283;48.876;8.962;2023-03-23T07:44:10;2.17;;;1.60;;
10471;SDS011;5283;48.876;8.962;2023-03-23T07:46:36;2.63;;;1.70;;
10471;SDS011;5283;48.876;8.962;2023-03-23T07:49:02;1.67;;;1.57;;
10471;SDS011;5283;48.876;8.962;2023-03-23T07:51:30;3.27;;;1.70;;
10471;SDS011;5283;48.876;8.962;2023-03-23T07:53:57;1.97;;;1.77;;
10471;SDS011;5283;48.876;8.962;2023-03-23T07:56:23;1.57;;;1.47;;
10471;SDS011;5283;48.876;8.962;2023-03-23T07:58:49;1.73;;;1.50;;
10471;SDS011;5283;48.876;8.962;2023-03-23T08:01:14;1.60;;;1.50;;
10471;SDS011;5283;48.876;8.962;2023-03-23T08:03:41;1.80;;;1.67;;
10471;SDS011;5283;48.876;8.962;2023-03-23T08:06:07;2.03;;;1.80;;
10471;SDS011;5283;48.876;8.962;2023-03-23T08:08:33;1.63;;;1.47;;
10471;SDS011;5283;48.876;8.962;2023-03-23T08:11:00;2.47;;;1.77;;
10471;SDS011;5283;48.876;8.962;2023-03-23T08:13:26;3.13;;;1.67;;
10471;SDS011;5283;48.876;8.962;2023-03-23T08:15:52;3.57;;;1.80;;
10471;SDS011;5283;48.876;8.962;2023-03-23T08:18:18;2.77;;;1.70;;
10471;SDS011;5283;48.876;8.962;2023-03-23T08:20:44;1.50;;;1.40;;
10471;SDS011;5283;48.876;8.962;2023-03-23T08:23:10;2.83;;;1.50;;
10471;SDS011;5283;48.876;8.962;2023-03-23T08:25:36;2.10;;;1.37;;
10471;SDS011;5283;48.876;8.962;2023-03-23T08:28:02;1.60;;;1.30;;
10471;SDS011;5283;48.876;8.962;2023-03-23T08:30:29;1.60;;;1.50;;
10471;SDS011;5283;48.876;8.962;2023-03-23T08:32:58;1.53;;;1.43;;
10471;SDS011;5283;48.876;8.962;2023-03-23T08:35:25;2.27;;;1.73;;
10471;SDS011;5283;48.876;8.962;2023-03-23T08:37:51;1.97;;;1.40;;
10471;SDS011;5283;48.876;8.962;2023-03-23T08:40:19;2.00;;;1.77;;
10471;SDS011;5283;48.876;8.962;2023-03-23T08:42:46;2.63;;;1.43;;
10471;SDS011;5283;48.876;8.962;2023-03-23T08:45:15;1.80;;;1.70;;
10471;SDS011;5283;48.876;8.962;2023-03-23T08:47:46;1.90;;;1.37;;
10471;SDS011;5283;48.876;8.962;2023-03-23T08:50:18;2.43;;;1.73;;
10471;SDS011;5283;48.876;8.962;2023-03-23T08:52:47;1.57;;;1.47;;
10471;SDS011;5283;48.876;8.962;2023-03-23T08:55:15;1.70;;;1.47;;
10471;SDS011;5283;48.876;8.962;2023-03-23T08:57:42;1.90;;;1.80;;
10471;SDS011;5283;48.876;8.962;2023-03-23T09:00:10;2.10;;;1.50;;
10471;SDS011;5283;48.876;8.962;2023-03-23T09:02:50;1.53;;;1.43;;
10471;SDS011;5283;48.876;8.962;2023-03-23T09:05:19;2.63;;;1.43;;
10471;SDS011;5283;48.876;8.962;2023-03-23T09:07:48;1.43;;;1.30;;
10471;SDS011;5283;48.876;8.962;2023-03-23T09:10:15;1.20;;;1.10;;
10471;SDS011;5283;48.876;8.962;2023-03-23T09:12:42;1.40;;;1.30;;
10471;SDS011;5283;48.876;8.962;2023-03-23T09:15:10;1.77;;;1.30;;
10471;SDS011;5283;48.876;8.962;2023-03-23T09:17:39;3.03;;;1.20;;
10471;SDS011;5283;48.876;8.962;2023-03-23T09:20:10;2.53;;;1.60;;
10471;SDS011;5283;48.876;8.962;2023-03-23T09:22:39;2.30;;;1.50;;
10471;SDS011;5283;48.876;8.962;2023-03-23T09:25:06;2.13;;;1.50;;
10471;SDS011;5283;48.876;8.962;2023-03-23T09:27:33;1.40;;;1.30;;
10471;SDS011;5283;48.876;8.962;2023-03-23T09:30:02;1.93;;;1.20;;
10471;SDS011;5283;48.876;8.962;2023-03-23T09:32:32;1.87;;;1.50;;
10471;SDS011;5283;48.876;8.962;2023-03-23T09:34:58;1.30;;;1.20;;
10471;SDS011;5283;48.876;8.962;2023-03-23T09:37:24;1.53;;;1.37;;
10471;SDS011;5283;48.876;8.962;2023-03-23T09:39:49;2.40;;;1.60;;
10471;SDS011;5283;48.876;8.962;2023-03-23T09:42:18;1.90;;;1.43;;
10471;SDS011;5283;48.876;8.962;2023-03-23T09:45:02;2.03;;;1.47;;
10471;SDS011;5283;48.876;8.962;2023-03-23T09:47:56;3.80;;;1.60;;
10471;SDS011;5283;48.876;8.962;2023-03-23T09:50:34;2.53;;;1.60;;
10471;SDS011;5283;48.876;8.962;2023-03-23T09:55:36;2.13;;;1.80;;
10471;SDS011;5283;48.876;8.962;2023-03-23T09:58:16;2.67;;;1.73;;
10471;SDS011;5283;48.876;8.962;2023-03-23T10:00:57;31.07;;;3.33;;
10471;SDS011;5283;48.876;8.962;2023-03-23T10:03:33;3.07;;;1.40;;
10471;SDS011;5283;48.876;8.962;2023-03-23T10:06:04;1.63;;;1.40;;
10471;SDS011;5283;48.876;8.962;2023-03-23T10:08:32;1.40;;;1.30;;
10471;SDS011;5283;48.876;8.962;2023-03-23T10:16:03;1.53;;;1.40;;
10471;SDS011;5283;48.876;8.962;2023-03-23T10:21:26;2.20;;;1.20;;
10471;SDS011;5283;48.876;8.962;2023-03-23T10:24:03;1.47;;;1.37;;
10471;SDS011;5283;48.876;8.962;2023-03-23T10:26:35;1.50;;;1.40;;
10471;SDS011;5283;48.876;8.962;2023-03-23T10:29:23;1.37;;;1.13;;
10471;SDS011;5283;48.876;8.962;2023-03-23T10:32:00;2.53;;;1.20;;
10471;SDS011;5283;48.876;8.962;2023-03-23T10:39:26;2.17;;;1.30;;
10471;SDS011;5283;48.876;8.962;2023-03-23T10:41:56;1.30;;;1.17;;
10471;SDS011;5283;48.876;8.962;2023-03-23T10:44:27;1.63;;;1.53;;
10471;SDS011;5283;48.876;8.962;2023-03-23T10:47:02;1.73;;;1.37;;
10471;SDS011;5283;48.876;8.962;2023-03-23T10:49:33;1.57;;;1.30;;
10471;SDS011;5283;48.876;8.962;2023-03-23T10:52:02;1.93;;;1.40;;
10471;SDS011;5283;48.876;8.962;2023-03-23T10:54:46;1.57;;;1.30;;
10471;SDS011;5283;48.876;8.962;2023-03-23T10:57:23;1.27;;;0.97;;
10471;SDS011;5283;48.876;8.962;2023-03-23T11:02:47;2.57;;;1.60;;
10471;SDS011;5283;48.876;8.962;2023-03-23T11:08:01;1.20;;;1.03;;
10471;SDS011;5283;48.876;8.962;2023-03-23T11:10:33;2.13;;;1.30;;
10471;SDS011;5283;48.876;8.962;2023-03-23T11:13:04;1.27;;;1.20;;
10471;SDS011;5283;48.876;8.962;2023-03-23T11:15:35;2.13;;;1.20;;
10471;SDS011;5283;48.876;8.962;2023-03-23T11:20:55;1.50;;;1.37;;
10471;SDS011;5283;48.876;8.962;2023-03-23T11:23:27;1.90;;;1.30;;
10471;SDS011;5283;48.876;8.962;2023-03-23T11:25:56;1.30;;;1.20;;
10471;SDS011;5283;48.876;8.962;2023-03-23T11:28:41;1.27;;;1.07;;
10471;SDS011;5283;48.876;8.962;2023-03-23T11:31:16;1.43;;;0.90;;
10471;SDS011;5283;48.876;8.962;2023-03-23T11:36:37;1.17;;;1.07;;
10471;SDS011;5283;48.876;8.962;2023-03-23T11:41:53;1.70;;;1.37;;
10471;SDS011;5283;48.876;8.962;2023-03-23T11:44:21;1.17;;;1.07;;
10471;SDS011;5283;48.876;8.962;2023-03-23T11:47:00;1.50;;;1.40;;
10471;SDS011;5283;48.876;8.962;2023-03-23T11:49:59;1.30;;;1.20;;
10471;SDS011;5283;48.876;8.962;2023-03-23T11:52:44;1.33;;;1.23;;
10471;SDS011;5283;48.876;8.962;2023-03-23T11:55:25;1.70;;;1.60;;
10471;SDS011;5283;48.876;8.962;2023-03-23T11:57:55;3.07;;;1.87;;
10471;SDS011;5283;48.876;8.962;2023-03-23T12:00:25;2.03;;;1.47;;
10471;SDS011;5283;48.876;8.962;2023-03-23T12:03:04;6.27;;;1.77;;
10471;SDS011;5283;48.876;8.962;2023-03-23T12:11:40;2.87;;;1.50;;
10471;SDS011;5283;48.876;8.962;2023-03-23T12:17:33;1.50;;;1.33;;
10471;SDS011;5283;48.876;8.962;2023-03-23T12:20:21;2.80;;;1.70;;
10471;SDS011;5283;48.876;8.962;2023-03-23T12:28:11;1.70;;;1.60;;
10471;SDS011;5283;48.876;8.962;2023-03-23T12:30:49;3.33;;;1.47;;
10471;SDS011;5283;48.876;8.962;2023-03-23T12:33:39;2.73;;;1.80;;
10471;SDS011;5283;48.876;8.962;2023-03-23T12:36:28;1.70;;;1.60;;
10471;SDS011;5283;48.876;8.962;2023-03-23T12:42:01;2.13;;;1.80;;
10471;SDS011;5283;48.876;8.962;2023-03-23T12:44:30;1.90;;;1.70;;
10471;SDS011;5283;48.876;8.962;2023-03-23T12:52:22;1.77;;;1.57;;
10471;SDS011;5283;48.876;8.962;2023-03-23T12:55:34;2.10;;;1.90;;
10471;SDS011;5283;48.876;8.962;2023-03-23T12:58:08;1.93;;;1.83;;
10471;SDS011;5283;48.876;8.962;2023-03-23T13:03:56;1.80;;;1.70;;
10471;SDS011;5283;48.876;8.962;2023-03-23T13:06:27;1.50;;;1.40;;
10471;SDS011;5283;48.876;8.962;2023-03-23T13:09:22;2.00;;;1.80;;
10471;SDS011;5283;48.876;8.962;2023-03-23T13:12:13;2.07;;;1.70;;
10471;SDS011;5283;48.876;8.962;2023-03-23T13:17:50;2.03;;;1.80;;
10471;SDS011;5283;48.876;8.962;2023-03-23T13:26:32;1.60;;;1.50;;
10471;SDS011;5283;48.876;8.962;2023-03-23T13:29:20;1.70;;;1.60;;
10471;SDS011;5283;48.876;8.962;2023-03-23T13:31:49;2.03;;;1.37;;
10471;SDS011;5283;48.876;8.962;2023-03-23T13:34:26;1.80;;;1.70;;
10471;SDS011;5283;48.876;8.962;2023-03-23T13:39:58;2.57;;;1.53;;
10471;SDS011;5283;48.876;8.962;2023-03-23T13:42:52;1.57;;;1.47;;
10471;SDS011;5283;48.876;8.962;2023-03-23T13:45:24;1.80;;;1.70;;
10471;SDS011;5283;48.876;8.962;2023-03-23T13:51:23;2.17;;;1.67;;
10471;SDS011;5283;48.876;8.962;2023-03-23T13:53:48;2.47;;;1.40;;
10471;SDS011;5283;48.876;8.962;2023-03-23T13:56:19;1.83;;;1.73;;
10471;SDS011;5283;48.876;8.962;2023-03-23T13:58:48;3.07;;;2.33;;
10471;SDS011;5283;48.876;8.962;2023-03-23T14:01:38;2.90;;;2.60;;
10471;SDS011;5283;48.876;8.962;2023-03-23T14:04:16;2.53;;;1.80;;
10471;SDS011;5283;48.876;8.962;2023-03-23T14:06:43;2.50;;;2.30;;
10471;SDS011;5283;48.876;8.962;2023-03-23T14:09:18;2.43;;;1.80;;
10471;SDS011;5283;48.876;8.962;2023-03-23T14:12:04;2.80;;;1.97;;
10471;SDS011;5283;48.876;8.962;2023-03-23T14:14:41;2.40;;;1.80;;
10471;SDS011;5283;48.876;8.962;2023-03-23T14:17:14;3.90;;;1.90;;
10471;SDS011;5283;48.876;8.962;2023-03-23T14:20:04;2.07;;;1.97;;
10471;SDS011;5283;48.876;8.962;2023-03-23T14:22:35;2.23;;;2.00;;
10471;SDS011;5283;48.876;8.962;2023-03-23T14:25:37;2.00;;;1.80;;
10471;SDS011;5283;48.876;8.962;2023-03-23T14:27:57;2.40;;;2.10;;
10471;SDS011;5283;48.876;8.962;2023-03-23T14:30:23;1.87;;;1.70;;
10471;SDS011;5283;48.876;8.962;2023-03-23T14:33:03;2.13;;;1.90;;
10471;SDS011;5283;48.876;8.962;2023-03-23T14:35:33;2.47;;;1.77;;
10471;SDS011;5283;48.876;8.962;2023-03-23T14:38:01;1.83;;;1.63;;
10471;SDS011;5283;48.876;8.962;2023-03-23T14:40:27;2.10;;;1.90;;
10471;SDS011;5283;48.876;8.962;2023-03-23T14:42:55;1.87;;;1.77;;
10471;SDS011;5283;48.876;8.962;2023-03-23T14:45:21;2.53;;;1.80;;
10471;SDS011;5283;48.876;8.962;2023-03-23T14:47:49;3.63;;;2.17;;
10471;SDS011;5283;48.876;8.962;2023-03-23T14:50:31;1.87;;;1.63;;
10471;SDS011;5283;48.876;8.962;2023-03-23T14:53:20;3.37;;;1.77;;
10471;SDS011;5283;48.876;8.962;2023-03-23T14:55:48;2.50;;;1.70;;
10471;SDS011;5283;48.876;8.962;2023-03-23T14:58:17;2.20;;;1.70;;
10471;SDS011;5283;48.876;8.962;2023-03-23T15:01:06;2.03;;;1.83;;
10471;SDS011;5283;48.876;8.962;2023-03-23T15:03:57;2.80;;;2.07;;
10471;SDS011;5283;48.876;8.962;2023-03-23T15:06:36;1.70;;;1.60;;
10471;SDS011;5283;48.876;8.962;2023-03-23T15:09:11;2.40;;;1.80;;
10471;SDS011;5283;48.876;8.962;2023-03-23T15:11:40;6.47;;;2.00;;
10471;SDS011;5283;48.876;8.962;2023-03-23T15:14:17;3.47;;;1.97;;
10471;SDS011;5283;48.876;8.962;2023-03-23T15:16:50;4.67;;;1.90;;
10471;SDS011;5283;48.876;8.962;2023-03-23T15:19:54;2.40;;;1.73;;
10471;SDS011;5283;48.876;8.962;2023-03-23T15:22:22;3.23;;;1.70;;
10471;SDS011;5283;48.876;8.962;2023-03-23T15:24:51;4.33;;;1.77;;
10471;SDS011;5283;48.876;8.962;2023-03-23T15:27:32;3.00;;;1.80;;
10471;SDS011;5283;48.876;8.962;2023-03-23T15:30:00;1.90;;;1.80;;
10471;SDS011;5283;48.876;8.962;2023-03-23T15:32:39;1.70;;;1.60;;
10471;SDS011;5283;48.876;8.962;2023-03-23T15:35:15;1.90;;;1.70;;
10471;SDS011;5283;48.876;8.962;2023-03-23T15:37:49;1.77;;;1.67;;
10471;SDS011;5283;48.876;8.962;2023-03-23T15:40:20;2.10;;;1.90;;
10471;SDS011;5283;48.876;8.962;2023-03-23T15:42:48;2.33;;;2.03;;
10471;SDS011;5283;48.876;8.962;2023-03-23T15:45:21;3.60;;;1.60;;
10471;SDS011;5283;48.876;8.962;2023-03-23T15:47:52;1.90;;;1.80;;
10471;SDS011;5283;48.876;8.962;2023-03-23T15:52:52;2.23;;;1.87;;
10471;SDS011;5283;48.876;8.962;2023-03-23T15:55:26;3.90;;;1.63;;
10471;SDS011;5283;48.876;8.962;2023-03-23T15:57:52;2.20;;;1.90;;
10471;SDS011;5283;48.876;8.962;2023-03-23T16:00:22;2.63;;;1.83;;
10471;SDS011;5283;48.876;8.962;2023-03-23T16:03:00;2.33;;;1.97;;
10471;SDS011;5283;48.876;8.962;2023-03-23T16:05:30;2.97;;;2.00;;
10471;SDS011;5283;48.876;8.962;2023-03-23T16:07:57;2.37;;;1.77;;
10471;SDS011;5283;48.876;8.962;2023-03-23T16:10:24;1.90;;;1.80;;
10471;SDS011;5283;48.876;8.962;2023-03-23T16:12:52;4.90;;;2.20;;
10471;SDS011;5283;48.876;8.962;2023-03-23T16:15:19;5.17;;;2.37;;
10471;SDS011;5283;48.876;8.962;2023-03-23T16:17:46;4.57;;;2.70;;
10471;SDS011;5283;48.876;8.962;2023-03-23T16:20:14;3.70;;;2.57;;
10471;SDS011;5283;48.876;8.962;2023-03-23T16:22:42;3.77;;;2.17;;
10471;SDS011;5283;48.876;8.962;2023-03-23T16:25:09;6.23;;;2.53;;
10471;SDS011;5283;48.876;8.962;2023-03-23T16:27:37;5.20;;;2.40;;
10471;SDS011;5283;48.876;8.962;2023-03-23T16:30:15;5.10;;;2.60;;
10471;SDS011;5283;48.876;8.962;2023-03-23T16:32:43;2.93;;;2.30;;
10471;SDS011;5283;48.876;8.962;2023-03-23T16:35:12;3.60;;;2.70;;
10471;SDS011;5283;48.876;8.962;2023-03-23T16:37:43;3.23;;;2.70;;
10471;SDS011;5283;48.876;8.962;2023-03-23T16:40:15;3.87;;;3.10;;
10471;SDS011;5283;48.876;8.962;2023-03-23T16:42:43;5.77;;;3.57;;
10471;SDS011;5283;48.876;8.962;2023-03-23T16:45:10;4.10;;;3.20;;
10471;SDS011;5283;48.876;8.962;2023-03-23T16:47:38;4.63;;;2.47;;
10471;SDS011;5283;48.876;8.962;2023-03-23T16:50:07;4.43;;;2.37;;
10471;SDS011;5283;48.876;8.962;2023-03-23T16:52:37;2.90;;;2.40;;